sensor_id;sensor_type;location;lat;lon;timestamp;pressure;altitude;pressure_sealevel;temperature;humidity
29169;BME280;16219;42.864;23.360;2024-02-23T00:01:50;95626.38;;;3.83;100.00
29169;BME280;16219;42.864;23.360;2024-02-23T00:04:17;95621.53;;;3.61;100.00
29169;BME280;16219;42.864;23.360;2024-02-23T00:06:45;95619.22;;;3.55;100.00
29169;BME280;16219;42.864;23.360;2024-02-23T00:09:12;95593.19;;;3.44;100.00
29169;BME280;16219;42.864;23.360;2024-02-23T00:11:39;95617.88;;;3.62;100.00
29169;BME280;16219;42.864;23.360;2024-02-23T00:14:11;95613.94;;;3.65;100.00
29169;BME280;16219;42.864;23.360;2024-02-23T00:16:39;95612.91;;;3.61;100.00
29169;BME280;16219;42.864;23.360;2024-02-23T00:19:07;95613.19;;;3.59;100.00
29169;BME280;16219;42.864;23.360;2024-02-23T00:21:34;95607.19;;;3.59;100.00
29169;BME280;16219;42.864;23.360;2024-02-23T00:24:01;95612.97;;;3.50;100.00
29169;BME280;16219;42.864;23.360;2024-02-23T00:26:28;95604.91;;;3.47;100.00
29169;BME280;16219;42.864;23.360;2024-02-23T00:28:55;95602.50;;;3.56;100.00
29169;BME280;16219;42.864;23.360;2024-02-23T00:31:23;95604.34;;;3.55;100.00
29169;BME280;16219;42.864;23.360;2024-02-23T00:33:51;95598.34;;;3.55;100.00
29169;BME280;16219;42.864;23.360;2024-02-23T00:36:18;95577.53;;;3.49;100.00
29169;BME280;16219;42.864;23.360;2024-02-23T00:38:45;95550.00;;;3.28;100.00
29169;BME280;16219;42.864;23.360;2024-02-23T00:41:11;95585.59;;;3.53;100.00
29169;BME280;16219;42.864;23.360;2024-02-23T00:43:38;95582.97;;;3.53;100.00
29169;BME280;16219;42.864;23.360;2024-02-23T00:46:06;95581.41;;;3.57;100.00
29169;BME280;16219;42.864;23.360;2024-02-23T00:48:34;95575.69;;;3.50;100.00
29169;BME280;16219;42.864;23.360;2024-02-23T00:51:02;95566.31;;;3.49;100.00
29169;BME280;16219;42.864;23.360;2024-02-23T00:53:30;95567.00;;;3.60;100.00
29169;BME280;16219;42.864;23.360;2024-02-23T00:55:57;95558.44;;;3.54;100.00
29169;BME280;16219;42.864;23.360;2024-02-23T00:58:24;95565.53;;;3.48;100.00
29169;BME280;16219;42.864;23.360;2024-02-23T01:00:51;95568.03;;;3.64;100.00
29169;BME280;16219;42.864;23.360;2024-02-23T01:03:18;95566.00;;;3.56;100.00
29169;BME280;16219;42.864;23.360;2024-02-23T01:05:47;95570.16;;;3.62;100.00
29169;BME280;16219;42.864;23.360;2024-02-23T01:08:14;95565.66;;;3.67;100.00
29169;BME280;16219;42.864;23.360;2024-02-23T01:10:41;95558.13;;;3.61;100.00
29169;BME280;16219;42.864;23.360;2024-02-23T01:13:08;95559.19;;;3.60;100.00
29169;BME280;16219;42.864;23.360;2024-02-23T01:15:35;95559.72;;;3.57;100.00
29169;BME280;16219;42.864;23.360;2024-02-23T01:18:02;95551.38;;;3.60;100.00
29169;BME280;16219;42.864;23.360;2024-02-23T01:20:29;95544.31;;;3.60;100.00
29169;BME280;16219;42.864;23.360;2024-02-23T01:22:57;95544.31;;;3.65;100.00
29169;BME280;16219;42.864;23.360;2024-02-23T01:25:24;95549.25;;;3.67;100.00
29169;BME280;16219;42.864;23.360;2024-02-23T01:27:51;95545.06;;;3.66;100.00
29169;BME280;16219;42.864;23.360;2024-02-23T01:30:18;95535.66;;;3.70;100.00
29169;BME280;16219;42.864;23.360;2024-02-23T01:32:45;95542.44;;;3.71;100.00
29169;BME280;16219;42.864;23.360;2024-02-23T01:35:12;95535.22;;;3.58;100.00
29169;BME280;16219;42.864;23.360;2024-02-23T01:37:39;95541.94;;;3.64;100.00
29169;BME280;16219;42.864;23.360;2024-02-23T01:40:09;95535.41;;;3.66;100.00
29169;BME280;16219;42.864;23.360;2024-02-23T01:42:36;95528.38;;;3.67;100.00
29169;BME280;16219;42.864;23.360;2024-02-23T01:45:03;95525.22;;;3.70;100.00
29169;BME280;16219;42.864;23.360;2024-02-23T01:47:30;95536.69;;;3.74;100.00
29169;BME280;16219;42.864;23.360;2024-02-23T01:49:59;95525.41;;;3.79;100.00
29169;BME280;16219;42.864;23.360;2024-02-23T01:52:26;95519.91;;;3.80;100.00
29169;BME280;16219;42.864;23.360;2024-02-23T01:54:54;95532.91;;;3.85;100.00
29169;BME280;16219;42.864;23.360;2024-02-23T01:57:23;95520.38;;;3.87;100.00
29169;BME280;16219;42.864;23.360;2024-02-23T01:59:51;95490.31;;;3.61;100.00
29169;BME280;16219;42.864;23.360;2024-02-23T02:02:18;95520.94;;;3.84;100.00
29169;BME280;16219;42.864;23.360;2024-02-23T02:04:46;95489.25;;;3.67;100.00
29169;BME280;16219;42.864;23.360;2024-02-23T02:07:13;95523.59;;;3.79;100.00
29169;BME280;16219;42.864;23.360;2024-02-23T02:09:40;95515.66;;;3.89;100.00
29169;BME280;16219;42.864;23.360;2024-02-23T02:12:07;95508.38;;;3.86;100.00
29169;BME280;16219;42.864;23.360;2024-02-23T02:14:35;95502.63;;;3.89;100.00
29169;BME280;16219;42.864;23.360;2024-02-23T02:17:02;95504.25;;;3.80;100.00
29169;BME280;16219;42.864;23.360;2024-02-23T02:19:30;95507.34;;;3.87;100.00
29169;BME280;16219;42.864;23.360;2024-02-23T02:21:57;95504.16;;;3.95;100.00
29169;BME280;16219;42.864;23.360;2024-02-23T02:24:24;95483.84;;;3.87;100.00
29169;BME280;16219;42.864;23.360;2024-02-23T02:26:51;95492.00;;;3.81;100.00
29169;BME280;16219;42.864;23.360;2024-02-23T02:29:17;95508.38;;;3.86;100.00
29169;BME280;16219;42.864;23.360;2024-02-23T02:31:46;95508.91;;;3.88;100.00
29169;BME280;16219;42.864;23.360;2024-02-23T02:34:13;95507.88;;;3.84;100.00
29169;BME280;16219;42.864;23.360;2024-02-23T02:36:40;95498.59;;;4.02;100.00
29169;BME280;16219;42.864;23.360;2024-02-23T02:39:07;95503.38;;;3.90;100.00
29169;BME280;16219;42.864;23.360;2024-02-23T02:41:34;95490.72;;;3.78;100.00
29169;BME280;16219;42.864;23.360;2024-02-23T02:44:01;95499.97;;;3.94;100.00
29169;BME280;16219;42.864;23.360;2024-02-23T02:46:27;95504.34;;;3.99;100.00
29169;BME280;16219;42.864;23.360;2024-02-23T02:48:56;95507.75;;;3.99;100.00
29169;BME280;16219;42.864;23.360;2024-02-23T02:51:23;95493.72;;;3.90;100.00
29169;BME280;16219;42.864;23.360;2024-02-23T02:53:50;95505.69;;;3.96;100.00
29169;BME280;16219;42.864;23.360;2024-02-23T02:56:15;95509.31;;;4.00;100.00
29169;BME280;16219;42.864;23.360;2024-02-23T02:58:42;95505.69;;;3.96;100.00
29169;BME280;16219;42.864;23.360;2024-02-23T03:01:09;95510.31;;;4.05;100.00
29169;BME280;16219;42.864;23.360;2024-02-23T03:03:36;95501.47;;;4.00;100.00
29169;BME280;16219;42.864;23.360;2024-02-23T03:06:05;95506.97;;;3.99;100.00
29169;BME280;16219;42.864;23.360;2024-02-23T03:08:32;95512.47;;;3.97;100.00
29169;BME280;16219;42.864;23.360;2024-02-23T03:10:59;95503.84;;;3.97;100.00
29169;BME280;16219;42.864;23.360;2024-02-23T03:13:26;95505.09;;;4.05;100.00
29169;BME280;16219;42.864;23.360;2024-02-23T03:15:53;95508.97;;;4.07;100.00
29169;BME280;16219;42.864;23.360;2024-02-23T03:18:20;95511.91;;;4.00;100.00
29169;BME280;16219;42.864;23.360;2024-02-23T03:20:47;95504.34;;;3.99;100.00
29169;BME280;16219;42.864;23.360;2024-02-23T03:23:16;95503.84;;;3.97;100.00
29169;BME280;16219;42.864;23.360;2024-02-23T03:25:42;95508.19;;;4.07;100.00
29169;BME280;16219;42.864;23.360;2024-02-23T03:28:09;95498.34;;;4.04;100.00
29169;BME280;16219;42.864;23.360;2024-02-23T03:30:36;95501.91;;;4.13;100.00
29169;BME280;16219;42.864;23.360;2024-02-23T03:33:04;95509.44;;;4.14;100.00
29169;BME280;16219;42.864;23.360;2024-02-23T03:35:31;95507.66;;;4.10;100.00
29169;BME280;16219;42.864;23.360;2024-02-23T03:37:58;95508.38;;;4.15;100.00
29169;BME280;16219;42.864;23.360;2024-02-23T03:40:26;95446.72;;;3.66;100.00
29169;BME280;16219;42.864;23.360;2024-02-23T03:42:53;95508.19;;;4.07;100.00
29169;BME280;16219;42.864;23.360;2024-02-23T03:45:20;95508.19;;;4.07;100.00
29169;BME280;16219;42.864;23.360;2024-02-23T03:47:47;95510.22;;;4.15;100.00
29169;BME280;16219;42.864;23.360;2024-02-23T03:50:14;95507.00;;;4.23;100.00
29169;BME280;16219;42.864;23.360;2024-02-23T03:52:41;95505.56;;;4.36;100.00
29169;BME280;16219;42.864;23.360;2024-02-23T03:55:08;95508.47;;;4.34;100.00
29169;BME280;16219;42.864;23.360;2024-02-23T03:57:37;95510.91;;;4.25;100.00
29169;BME280;16219;42.864;23.360;2024-02-23T04:00:05;95509.06;;;4.26;100.00
29169;BME280;16219;42.864;23.360;2024-02-23T04:02:41;95507.19;;;4.32;100.00
29169;BME280;16219;42.864;23.360;2024-02-23T04:05:09;95508.69;;;4.38;100.00
29169;BME280;16219;42.864;23.360;2024-02-23T04:07:36;95508.13;;;4.41;100.00
29169;BME280;16219;42.864;23.360;2024-02-23T04:10:03;95519.03;;;4.48;100.00
29169;BME280;16219;42.864;23.360;2024-02-23T04:12:30;95518.25;;;4.47;100.00
29169;BME280;16219;42.864;23.360;2024-02-23T04:14:59;95514.63;;;4.43;100.00
29169;BME280;16219;42.864;23.360;2024-02-23T04:17:26;95512.50;;;4.50;100.00
29169;BME280;16219;42.864;23.360;2024-02-23T04:19:52;95514.47;;;4.59;100.00
29169;BME280;16219;42.864;23.360;2024-02-23T04:22:19;95515.91;;;4.70;100.00
29169;BME280;16219;42.864;23.360;2024-02-23T04:24:46;95519.06;;;4.67;100.00
29169;BME280;16219;42.864;23.360;2024-02-23T04:27:13;95513.38;;;4.65;100.00
29169;BME280;16219;42.864;23.360;2024-02-23T04:29:39;95516.97;;;4.69;100.00
29169;BME280;16219;42.864;23.360;2024-02-23T04:32:08;95515.06;;;4.74;100.00
29169;BME280;16219;42.864;23.360;2024-02-23T04:34:34;95515.91;;;4.70;100.00
29169;BME280;16219;42.864;23.360;2024-02-23T04:37:01;95512.22;;;4.71;100.00
29169;BME280;16219;42.864;23.360;2024-02-23T04:39:28;95508.44;;;4.82;100.00
29169;BME280;16219;42.864;23.360;2024-02-23T04:41:55;95516.00;;;4.84;100.00
29169;BME280;16219;42.864;23.360;2024-02-23T04:44:22;95522.22;;;4.88;100.00
29169;BME280;16219;42.864;23.360;2024-02-23T04:46:49;95523.59;;;4.85;100.00
29169;BME280;16219;42.864;23.360;2024-02-23T04:49:17;95515.81;;;4.80;100.00
29169;BME280;16219;42.864;23.360;2024-02-23T04:51:44;95523.34;;;4.82;100.00
29169;BME280;16219;42.864;23.360;2024-02-23T04:54:11;95523.06;;;4.83;100.00
29169;BME280;16219;42.864;23.360;2024-02-23T04:56:38;95521.75;;;4.86;100.00
29169;BME280;16219;42.864;23.360;2024-02-23T04:59:05;95536.06;;;4.88;100.00
29169;BME280;16219;42.864;23.360;2024-02-23T05:01:36;95536.06;;;4.88;100.00
29169;BME280;16219;42.864;23.360;2024-02-23T05:04:03;95532.13;;;4.91;100.00
29169;BME280;16219;42.864;23.360;2024-02-23T05:06:32;95528.28;;;4.83;100.00
29169;BME280;16219;42.864;23.360;2024-02-23T05:08:59;95526.19;;;4.85;100.00
29169;BME280;16219;42.864;23.360;2024-02-23T05:11:26;95537.81;;;4.98;100.00
29169;BME280;16219;42.864;23.360;2024-02-23T05:13:53;95543.25;;;5.01;100.00
29169;BME280;16219;42.864;23.360;2024-02-23T05:16:20;95551.91;;;4.97;100.00
29169;BME280;16219;42.864;23.360;2024-02-23T05:18:47;95554.72;;;5.06;100.00
29169;BME280;16219;42.864;23.360;2024-02-23T05:21:14;95559.13;;;5.05;100.00
29169;BME280;16219;42.864;23.360;2024-02-23T05:23:43;95559.13;;;5.05;100.00
29169;BME280;16219;42.864;23.360;2024-02-23T05:26:12;95557.88;;;5.03;100.00
29169;BME280;16219;42.864;23.360;2024-02-23T05:28:38;95551.75;;;4.88;100.00
29169;BME280;16219;42.864;23.360;2024-02-23T05:31:06;95574.63;;;5.01;100.00
29169;BME280;16219;42.864;23.360;2024-02-23T05:33:33;95561.03;;;4.99;100.00
29169;BME280;16219;42.864;23.360;2024-02-23T05:36:00;95570.81;;;5.13;100.00
29169;BME280;16219;42.864;23.360;2024-02-23T05:38:27;95565.72;;;5.03;100.00
29169;BME280;16219;42.864;23.360;2024-02-23T05:40:55;95576.19;;;5.03;100.00
29169;BME280;16219;42.864;23.360;2024-02-23T05:43:22;95572.22;;;5.05;100.00
29169;BME280;16219;42.864;23.360;2024-02-23T05:45:49;95575.28;;;5.12;100.00
29169;BME280;16219;42.864;23.360;2024-02-23T05:48:16;95570.19;;;5.21;100.00
29169;BME280;16219;42.864;23.360;2024-02-23T05:50:44;95571.03;;;5.16;100.00
29169;BME280;16219;42.864;23.360;2024-02-23T05:53:11;95570.50;;;5.19;100.00
29169;BME280;16219;42.864;23.360;2024-02-23T05:55:38;95569.94;;;5.22;100.00
29169;BME280;16219;42.864;23.360;2024-02-23T05:58:07;95559.47;;;5.22;100.00
29169;BME280;16219;42.864;23.360;2024-02-23T06:00:35;95577.94;;;5.31;100.00
29169;BME280;16219;42.864;23.360;2024-02-23T06:03:02;95567.66;;;5.35;100.00
29169;BME280;16219;42.864;23.360;2024-02-23T06:05:29;95574.66;;;5.39;100.00
29169;BME280;16219;42.864;23.360;2024-02-23T06:08:06;95578.78;;;5.45;100.00
29169;BME280;16219;42.864;23.360;2024-02-23T06:10:39;95572.69;;;5.50;100.00
29169;BME280;16219;42.864;23.360;2024-02-23T06:13:09;95585.75;;;5.69;100.00
29169;BME280;16219;42.864;23.360;2024-02-23T06:15:36;95588.81;;;5.76;100.00
29169;BME280;16219;42.864;23.360;2024-02-23T06:18:04;95589.88;;;5.75;100.00
29169;BME280;16219;42.864;23.360;2024-02-23T06:20:32;95578.34;;;5.76;100.00
29169;BME280;16219;42.864;23.360;2024-02-23T06:22:59;95597.03;;;5.88;100.00
29169;BME280;16219;42.864;23.360;2024-02-23T06:25:26;95602.59;;;5.82;100.00
29169;BME280;16219;42.864;23.360;2024-02-23T06:27:53;95594.84;;;5.95;100.00
29169;BME280;16219;42.864;23.360;2024-02-23T06:30:22;95574.59;;;6.01;100.00
29169;BME280;16219;42.864;23.360;2024-02-23T06:32:51;95593.06;;;6.10;100.00
29169;BME280;16219;42.864;23.360;2024-02-23T06:35:18;95580.66;;;6.15;100.00
29169;BME280;16219;42.864;23.360;2024-02-23T06:37:49;95598.53;;;6.27;100.00
29169;BME280;16219;42.864;23.360;2024-02-23T06:40:16;95595.06;;;6.32;100.00
29169;BME280;16219;42.864;23.360;2024-02-23T06:42:44;95605.31;;;6.47;100.00
29169;BME280;16219;42.864;23.360;2024-02-23T06:45:11;95560.13;;;6.36;100.00
29169;BME280;16219;42.864;23.360;2024-02-23T06:47:40;95596.38;;;6.62;100.00
29169;BME280;16219;42.864;23.360;2024-02-23T06:50:08;95581.94;;;6.78;100.00
29169;BME280;16219;42.864;23.360;2024-02-23T06:52:35;95594.78;;;6.93;100.00
29169;BME280;16219;42.864;23.360;2024-02-23T06:55:03;95597.59;;;7.11;100.00
29169;BME280;16219;42.864;23.360;2024-02-23T06:57:30;95584.66;;;7.14;100.00
29169;BME280;16219;42.864;23.360;2024-02-23T06:59:57;95596.50;;;7.39;100.00
29169;BME280;16219;42.864;23.360;2024-02-23T07:02:25;95606.28;;;7.61;100.00
29169;BME280;16219;42.864;23.360;2024-02-23T07:04:53;95605.66;;;7.78;100.00
29169;BME280;16219;42.864;23.360;2024-02-23T07:07:22;95602.97;;;7.92;100.00
29169;BME280;16219;42.864;23.360;2024-02-23T07:09:49;95604.38;;;8.12;100.00
29169;BME280;16219;42.864;23.360;2024-02-23T07:12:17;95610.53;;;8.30;100.00
29169;BME280;16219;42.864;23.360;2024-02-23T07:14:44;95600.66;;;8.58;100.00
29169;BME280;16219;42.864;23.360;2024-02-23T07:17:11;95605.75;;;8.85;100.00
29169;BME280;16219;42.864;23.360;2024-02-23T07:19:38;95603.78;;;8.99;100.00
29169;BME280;16219;42.864;23.360;2024-02-23T07:22:07;95611.13;;;9.20;100.00
29169;BME280;16219;42.864;23.360;2024-02-23T07:24:33;95602.47;;;9.28;100.00
29169;BME280;16219;42.864;23.360;2024-02-23T07:27:01;95610.88;;;9.39;100.00
29169;BME280;16219;42.864;23.360;2024-02-23T07:29:28;95606.88;;;9.50;100.00
29169;BME280;16219;42.864;23.360;2024-02-23T07:31:55;95608.44;;;9.68;100.00
29169;BME280;16219;42.864;23.360;2024-02-23T07:34:22;95592.78;;;9.72;100.00
29169;BME280;16219;42.864;23.360;2024-02-23T07:36:51;95610.31;;;9.94;100.00
29169;BME280;16219;42.864;23.360;2024-02-23T07:39:20;95606.44;;;10.09;100.00
29169;BME280;16219;42.864;23.360;2024-02-23T07:41:47;95603.81;;;10.17;100.00
29169;BME280;16219;42.864;23.360;2024-02-23T07:44:14;95610.47;;;10.32;100.00
29169;BME280;16219;42.864;23.360;2024-02-23T07:46:41;95609.41;;;10.42;100.00
29169;BME280;16219;42.864;23.360;2024-02-23T07:49:09;95607.66;;;10.55;100.00
29169;BME280;16219;42.864;23.360;2024-02-23T07:51:36;95609.00;;;10.69;100.00
29169;BME280;16219;42.864;23.360;2024-02-23T07:54:04;95614.13;;;10.83;100.00
29169;BME280;16219;42.864;23.360;2024-02-23T07:56:32;95611.56;;;10.95;100.00
29169;BME280;16219;42.864;23.360;2024-02-23T07:58:59;95613.41;;;11.04;100.00
29169;BME280;16219;42.864;23.360;2024-02-23T08:01:28;95613.22;;;11.17;100.00
29169;BME280;16219;42.864;23.360;2024-02-23T08:03:56;95606.81;;;11.18;100.00
29169;BME280;16219;42.864;23.360;2024-02-23T08:06:23;95590.56;;;11.08;100.00
29169;BME280;16219;42.864;23.360;2024-02-23T08:08:51;95614.34;;;11.37;100.00
29169;BME280;16219;42.864;23.360;2024-02-23T08:11:19;95615.97;;;11.50;100.00
29169;BME280;16219;42.864;23.360;2024-02-23T08:13:47;95613.16;;;11.56;100.00
29169;BME280;16219;42.864;23.360;2024-02-23T08:16:15;95610.63;;;11.59;100.00
29169;BME280;16219;42.864;23.360;2024-02-23T08:18:42;95601.94;;;11.59;100.00
29169;BME280;16219;42.864;23.360;2024-02-23T08:21:10;95618.97;;;11.70;100.00
29169;BME280;16219;42.864;23.360;2024-02-23T08:23:37;95616.75;;;11.72;100.00
29169;BME280;16219;42.864;23.360;2024-02-23T08:26:04;95618.75;;;11.84;100.00
29169;BME280;16219;42.864;23.360;2024-02-23T08:28:31;95619.16;;;11.94;100.00
29169;BME280;16219;42.864;23.360;2024-02-23T08:30:59;95616.56;;;12.07;100.00
29169;BME280;16219;42.864;23.360;2024-02-23T08:33:26;95620.13;;;12.11;96.34
29169;BME280;16219;42.864;23.360;2024-02-23T08:35:53;95616.38;;;12.12;95.26
29169;BME280;16219;42.864;23.360;2024-02-23T08:38:20;95617.00;;;12.09;91.81
29169;BME280;16219;42.864;23.360;2024-02-23T08:40:47;95627.59;;;12.09;92.35
29169;BME280;16219;42.864;23.360;2024-02-23T08:43:15;95617.34;;;12.07;95.31
29169;BME280;16219;42.864;23.360;2024-02-23T08:45:42;95598.22;;;12.01;97.26
29169;BME280;16219;42.864;23.360;2024-02-23T08:48:10;95616.66;;;12.31;93.38
29169;BME280;16219;42.864;23.360;2024-02-23T08:50:40;95616.78;;;12.35;89.90
29169;BME280;16219;42.864;23.360;2024-02-23T08:53:07;95624.00;;;12.46;88.23
29169;BME280;16219;42.864;23.360;2024-02-23T08:55:34;95627.19;;;12.52;90.99
29169;BME280;16219;42.864;23.360;2024-02-23T08:58:01;95620.75;;;12.62;87.73
29169;BME280;16219;42.864;23.360;2024-02-23T09:00:28;95618.56;;;12.76;84.27
29169;BME280;16219;42.864;23.360;2024-02-23T09:02:55;95626.94;;;12.78;84.60
29169;BME280;16219;42.864;23.360;2024-02-23T09:05:37;95621.84;;;12.73;85.80
29169;BME280;16219;42.864;23.360;2024-02-23T09:08:50;95613.81;;;12.82;82.17
29169;BME280;16219;42.864;23.360;2024-02-23T09:11:36;95618.41;;;13.06;86.23
29169;BME280;16219;42.864;23.360;2024-02-23T09:14:26;95597.88;;;13.15;82.84
29169;BME280;16219;42.864;23.360;2024-02-23T09:17:13;95615.56;;;13.23;80.80
29169;BME280;16219;42.864;23.360;2024-02-23T09:20:00;95626.06;;;13.32;79.74
29169;BME280;16219;42.864;23.360;2024-02-23T09:22:48;95624.50;;;13.31;79.22
29169;BME280;16219;42.864;23.360;2024-02-23T09:25:16;95592.03;;;13.09;78.29
29169;BME280;16219;42.864;23.360;2024-02-23T09:27:43;95614.69;;;13.31;75.82
29169;BME280;16219;42.864;23.360;2024-02-23T09:30:11;95610.25;;;13.35;72.63
29169;BME280;16219;42.864;23.360;2024-02-23T09:32:38;95607.50;;;13.44;76.97
29169;BME280;16219;42.864;23.360;2024-02-23T09:35:06;95599.09;;;13.42;77.18
29169;BME280;16219;42.864;23.360;2024-02-23T09:37:33;95598.31;;;13.41;78.24
29169;BME280;16219;42.864;23.360;2024-02-23T09:40:02;95607.63;;;13.47;73.40
29169;BME280;16219;42.864;23.360;2024-02-23T09:42:29;95601.75;;;13.42;77.21
29169;BME280;16219;42.864;23.360;2024-02-23T09:44:58;95593.91;;;13.45;81.03
29169;BME280;16219;42.864;23.360;2024-02-23T09:47:26;95596.78;;;13.40;83.99
29169;BME280;16219;42.864;23.360;2024-02-23T09:49:54;95589.63;;;13.29;80.87
29169;BME280;16219;42.864;23.360;2024-02-23T09:52:24;95586.28;;;13.19;81.99
29169;BME280;16219;42.864;23.360;2024-02-23T09:54:54;95592.34;;;13.08;79.68
29169;BME280;16219;42.864;23.360;2024-02-23T09:57:23;95581.22;;;13.14;80.21
29169;BME280;16219;42.864;23.360;2024-02-23T09:59:50;95572.25;;;13.07;77.61
29169;BME280;16219;42.864;23.360;2024-02-23T10:02:17;95570.28;;;13.04;75.42
29169;BME280;16219;42.864;23.360;2024-02-23T10:04:44;95582.44;;;13.17;79.29
29169;BME280;16219;42.864;23.360;2024-02-23T10:07:14;95575.78;;;13.11;76.84
29169;BME280;16219;42.864;23.360;2024-02-23T10:09:42;95572.03;;;12.99;73.90
29169;BME280;16219;42.864;23.360;2024-02-23T10:12:09;95542.81;;;12.84;80.30
29169;BME280;16219;42.864;23.360;2024-02-23T10:14:37;95579.66;;;13.13;77.89
29169;BME280;16219;42.864;23.360;2024-02-23T10:17:06;95572.91;;;13.16;79.40
29169;BME280;16219;42.864;23.360;2024-02-23T10:19:34;95573.59;;;13.13;75.98
29169;BME280;16219;42.864;23.360;2024-02-23T10:22:01;95572.03;;;13.12;75.75
29169;BME280;16219;42.864;23.360;2024-02-23T10:24:28;95559.47;;;13.09;73.78
29169;BME280;16219;42.864;23.360;2024-02-23T10:26:56;95567.34;;;13.30;74.81
29169;BME280;16219;42.864;23.360;2024-02-23T10:29:23;95563.00;;;13.37;71.24
29169;BME280;16219;42.864;23.360;2024-02-23T10:31:56;95571.94;;;13.45;79.24
29169;BME280;16219;42.864;23.360;2024-02-23T10:34:24;95565.41;;;13.55;73.67
29169;BME280;16219;42.864;23.360;2024-02-23T10:36:52;95554.81;;;13.55;68.83
29169;BME280;16219;42.864;23.360;2024-02-23T10:39:24;95553.91;;;13.63;72.71
29169;BME280;16219;42.864;23.360;2024-02-23T10:41:56;95529.75;;;13.52;69.10
29169;BME280;16219;42.864;23.360;2024-02-23T10:44:24;95542.44;;;13.59;68.41
29169;BME280;16219;42.864;23.360;2024-02-23T10:46:55;95536.44;;;13.74;67.83
29169;BME280;16219;42.864;23.360;2024-02-23T10:49:23;95543.72;;;13.77;67.46
29169;BME280;16219;42.864;23.360;2024-02-23T10:51:53;95531.09;;;13.86;67.29
29169;BME280;16219;42.864;23.360;2024-02-23T10:54:21;95521.97;;;13.99;72.10
29169;BME280;16219;42.864;23.360;2024-02-23T10:56:50;95519.38;;;14.15;69.67
29169;BME280;16219;42.864;23.360;2024-02-23T10:59:18;95522.03;;;14.31;64.59
29169;BME280;16219;42.864;23.360;2024-02-23T11:01:46;95518.47;;;14.39;66.00
29169;BME280;16219;42.864;23.360;2024-02-23T11:04:16;95521.56;;;14.41;63.80
29169;BME280;16219;42.864;23.360;2024-02-23T11:06:49;95524.28;;;14.29;66.45
29169;BME280;16219;42.864;23.360;2024-02-23T11:09:16;95503.38;;;14.12;61.21
29169;BME280;16219;42.864;23.360;2024-02-23T11:11:52;95501.56;;;14.16;67.89
29169;BME280;16219;42.864;23.360;2024-02-23T11:14:29;95501.81;;;14.11;64.31
29169;BME280;16219;42.864;23.360;2024-02-23T11:16:56;95493.41;;;14.09;63.08
29169;BME280;16219;42.864;23.360;2024-02-23T11:19:33;95487.53;;;14.31;63.54
29169;BME280;16219;42.864;23.360;2024-02-23T11:22:01;95492.22;;;14.50;64.40
29169;BME280;16219;42.864;23.360;2024-02-23T11:24:29;95490.84;;;14.56;63.02
29169;BME280;16219;42.864;23.360;2024-02-23T11:26:59;95484.94;;;14.63;64.33
29169;BME280;16219;42.864;23.360;2024-02-23T11:29:34;95488.94;;;14.57;63.54
29169;BME280;16219;42.864;23.360;2024-02-23T11:32:02;95471.22;;;14.61;61.95
29169;BME280;16219;42.864;23.360;2024-02-23T11:34:30;95480.91;;;14.69;60.92
29169;BME280;16219;42.864;23.360;2024-02-23T11:37:07;95472.63;;;14.55;56.86
29169;BME280;16219;42.864;23.360;2024-02-23T11:39:37;95472.53;;;14.67;58.41
29169;BME280;16219;42.864;23.360;2024-02-23T11:42:05;95467.97;;;14.67;60.30
29169;BME280;16219;42.864;23.360;2024-02-23T11:44:33;95463.72;;;14.63;61.34
29169;BME280;16219;42.864;23.360;2024-02-23T11:46:59;95452.47;;;14.69;57.09
29169;BME280;16219;42.864;23.360;2024-02-23T11:49:30;95458.44;;;14.82;59.57
29169;BME280;16219;42.864;23.360;2024-02-23T11:51:59;95459.91;;;14.95;58.86
29169;BME280;16219;42.864;23.360;2024-02-23T11:54:26;95456.81;;;14.93;59.03
29169;BME280;16219;42.864;23.360;2024-02-23T11:56:53;95446.94;;;14.94;57.98
29169;BME280;16219;42.864;23.360;2024-02-23T11:59:21;95452.81;;;14.84;57.35
29169;BME280;16219;42.864;23.360;2024-02-23T12:01:48;95452.19;;;14.90;60.71
29169;BME280;16219;42.864;23.360;2024-02-23T12:04:15;95453.88;;;14.98;58.04
29169;BME280;16219;42.864;23.360;2024-02-23T12:06:43;95434.97;;;15.00;59.77
29169;BME280;16219;42.864;23.360;2024-02-23T12:09:12;95438.69;;;15.15;58.41
29169;BME280;16219;42.864;23.360;2024-02-23T12:11:40;95428.69;;;15.28;56.48
29169;BME280;16219;42.864;23.360;2024-02-23T12:14:08;95402.72;;;15.02;58.47
29169;BME280;16219;42.864;23.360;2024-02-23T12:16:35;95426.50;;;15.14;56.55
29169;BME280;16219;42.864;23.360;2024-02-23T12:19:02;95427.88;;;15.43;58.94
29169;BME280;16219;42.864;23.360;2024-02-23T12:21:30;95437.00;;;15.45;55.08
29169;BME280;16219;42.864;23.360;2024-02-23T12:23:57;95422.03;;;15.37;55.14
29169;BME280;16219;42.864;23.360;2024-02-23T12:26:27;95418.28;;;15.38;55.01
29169;BME280;16219;42.864;23.360;2024-02-23T12:29:00;95381.91;;;15.42;53.40
29169;BME280;16219;42.864;23.360;2024-02-23T12:31:28;95409.16;;;15.59;55.84
29169;BME280;16219;42.864;23.360;2024-02-23T12:33:57;95409.47;;;15.73;54.69
29169;BME280;16219;42.864;23.360;2024-02-23T12:36:25;95407.75;;;15.84;54.08
29169;BME280;16219;42.864;23.360;2024-02-23T12:38:51;95412.13;;;15.73;54.06
29169;BME280;16219;42.864;23.360;2024-02-23T12:41:18;95405.31;;;15.75;53.77
29169;BME280;16219;42.864;23.360;2024-02-23T12:43:47;95412.75;;;15.66;53.63
29169;BME280;16219;42.864;23.360;2024-02-23T12:46:14;95412.63;;;15.79;56.54
29169;BME280;16219;42.864;23.360;2024-02-23T12:48:41;95408.16;;;16.06;54.60
29169;BME280;16219;42.864;23.360;2024-02-23T12:51:08;95398.56;;;16.24;51.70
29169;BME280;16219;42.864;23.360;2024-02-23T12:53:36;95397.75;;;16.20;52.26
29169;BME280;16219;42.864;23.360;2024-02-23T12:56:05;95390.63;;;16.05;52.51